AFL2923 USSS-URSS
Flight info
| Callsign | AFL2923 |
|---|---|
| Flight time | 3h 47m |
| Altitude | 31000 |
| Route | MIKUS6K MIKUS T374 IMANA DCT AKB/K0837F320 DCT KODUM DCT AKT/K0835F340 DCT IPLED DCT GOTIK DCT MEMZA DCT VENFO DCT BINOL BINOL1K |
| Aircraft | A321/M-SDE3FGHIRWY/LB1 |
Departure
| Time | 2026-05-04 07:54 |
|---|---|
| Airport | Koltsovo Airport (USSS) |
Arrival
| Time | 2026-05-04 11:42 |
|---|---|
| Airport | Sochi International Airport (URSS) |
| Time | Latitude | Longitude | Altitude | Speed | Heading |
|---|---|---|---|---|---|
| 2026-05-04 06:54 | 56.74931 | 60.80047 | 775 ft | 0 kts | 360° |
| 2026-05-04 07:45 | 56.74925 | 60.80047 | 774 ft | 4 kts | 360° |
| 2026-05-04 07:45 | 56.74899 | 60.80047 | 774 ft | 3 kts | 0° |
| 2026-05-04 07:45 | 56.74876 | 60.80044 | 774 ft | 4 kts | 18° |
| 2026-05-04 07:46 | 56.74856 | 60.80020 | 774 ft | 4 kts | 67° |
| 2026-05-04 07:46 | 56.74852 | 60.79974 | 774 ft | 4 kts | 94° |
| 2026-05-04 07:46 | 56.74853 | 60.79941 | 774 ft | 0 kts | 90° |
| 2026-05-04 07:49 | 56.74859 | 60.81020 | 774 ft | 19 kts | 80° |
| 2026-05-04 07:49 | 56.74864 | 60.81245 | 774 ft | 17 kts | 89° |
| 2026-05-04 07:49 | 56.74862 | 60.81447 | 774 ft | 15 kts | 91° |
| 2026-05-04 07:50 | 56.74861 | 60.81627 | 775 ft | 13 kts | 90° |
| 2026-05-04 07:50 | 56.74860 | 60.81785 | 775 ft | 12 kts | 90° |
| 2026-05-04 07:50 | 56.74844 | 60.81913 | 775 ft | 10 kts | 114° |
| 2026-05-04 07:50 | 56.74817 | 60.82013 | 775 ft | 8 kts | 116° |
| 2026-05-04 07:51 | 56.74786 | 60.82124 | 775 ft | 12 kts | 116° |
| 2026-05-04 07:51 | 56.74697 | 60.82204 | 775 ft | 19 kts | 179° |
| 2026-05-04 07:51 | 56.74556 | 60.82201 | 774 ft | 20 kts | 179° |
| 2026-05-04 07:51 | 56.74425 | 60.82198 | 775 ft | 18 kts | 184° |
| 2026-05-04 07:52 | 56.74306 | 60.82181 | 775 ft | 16 kts | 184° |
| 2026-05-04 07:52 | 56.74202 | 60.82167 | 775 ft | 5 kts | 184° |
| 2026-05-04 07:52 | 56.74197 | 60.82167 | 775 ft | 0 kts | 184° |
| 2026-05-04 07:54 | 56.74343 | 60.74400 | 1883 ft | 170 kts | 273° |
| 2026-05-04 07:55 | 56.74371 | 60.72160 | 2088 ft | 186 kts | 272° |
| 2026-05-04 07:55 | 56.74388 | 60.69732 | 2230 ft | 202 kts | 271° |
| 2026-05-04 07:55 | 56.74403 | 60.67060 | 2352 ft | 220 kts | 271° |
| 2026-05-04 07:55 | 56.74424 | 60.64132 | 2460 ft | 243 kts | 271° |
| 2026-05-04 07:56 | 56.74452 | 60.60945 | 2828 ft | 256 kts | 272° |
| 2026-05-04 07:56 | 56.74485 | 60.57693 | 3487 ft | 257 kts | 272° |
| 2026-05-04 07:56 | 56.74466 | 60.54445 | 4193 ft | 257 kts | 262° |
| 2026-05-04 07:56 | 56.73716 | 60.51532 | 4784 ft | 261 kts | 227° |
| 2026-05-04 07:57 | 56.72269 | 60.49533 | 5420 ft | 262 kts | 210° |
| 2026-05-04 07:57 | 56.70632 | 60.48057 | 6063 ft | 263 kts | 204° |
| 2026-05-04 07:57 | 56.68974 | 60.46742 | 6673 ft | 264 kts | 204° |
| 2026-05-04 07:57 | 56.67290 | 60.45382 | 7260 ft | 266 kts | 205° |
| 2026-05-04 07:58 | 56.65610 | 60.43945 | 7822 ft | 268 kts | 206° |
| 2026-05-04 07:58 | 56.63938 | 60.42430 | 7986 ft | 268 kts | 207° |
| 2026-05-04 07:58 | 56.62289 | 60.40867 | 7997 ft | 267 kts | 208° |
| 2026-05-04 07:58 | 56.60647 | 60.39275 | 8003 ft | 267 kts | 208° |
| 2026-05-04 07:59 | 56.59012 | 60.37678 | 8004 ft | 267 kts | 208° |
| 2026-05-04 07:59 | 56.57380 | 60.36073 | 8000 ft | 267 kts | 209° |
| 2026-05-04 07:59 | 56.55747 | 60.34465 | 8001 ft | 267 kts | 209° |
| 2026-05-04 07:59 | 56.54136 | 60.32881 | 8005 ft | 267 kts | 209° |
| 2026-05-04 08:00 | 56.52503 | 60.31275 | 8002 ft | 267 kts | 209° |
| 2026-05-04 08:00 | 56.50869 | 60.29671 | 8004 ft | 267 kts | 209° |
| 2026-05-04 08:00 | 56.49234 | 60.28072 | 8000 ft | 267 kts | 209° |
| 2026-05-04 08:02 | 56.38289 | 60.15625 | 8755 ft | 270 kts | 224° |
| 2026-05-04 08:02 | 56.36944 | 60.13264 | 9343 ft | 271 kts | 224° |
| 2026-05-04 08:02 | 56.35582 | 60.10897 | 9894 ft | 273 kts | 223° |
| 2026-05-04 08:03 | 56.34187 | 60.08479 | 10171 ft | 286 kts | 223° |
| 2026-05-04 08:03 | 56.32717 | 60.05931 | 10299 ft | 302 kts | 223° |
| 2026-05-04 08:03 | 56.31167 | 60.03242 | 10440 ft | 317 kts | 223° |
| 2026-05-04 08:03 | 56.29542 | 60.00417 | 10596 ft | 331 kts | 223° |
| 2026-05-04 08:04 | 56.27897 | 59.97558 | 10981 ft | 336 kts | 223° |
| 2026-05-04 08:04 | 56.26206 | 59.94621 | 11449 ft | 339 kts | 223° |
| 2026-05-04 08:04 | 56.24510 | 59.91675 | 11947 ft | 340 kts | 223° |
| 2026-05-04 08:04 | 56.22801 | 59.88714 | 12455 ft | 342 kts | 223° |
| 2026-05-04 08:05 | 56.21080 | 59.85740 | 12936 ft | 344 kts | 223° |
| 2026-05-04 08:05 | 56.19351 | 59.82758 | 13430 ft | 346 kts | 223° |
| 2026-05-04 08:05 | 56.17608 | 59.79758 | 13905 ft | 348 kts | 223° |
| 2026-05-04 08:05 | 56.15860 | 59.76747 | 14369 ft | 349 kts | 223° |
| 2026-05-04 08:06 | 56.14130 | 59.73766 | 14800 ft | 351 kts | 223° |
| 2026-05-04 08:06 | 56.12366 | 59.70732 | 15229 ft | 352 kts | 223° |
| 2026-05-04 08:06 | 56.10595 | 59.67690 | 15633 ft | 354 kts | 223° |
| 2026-05-04 08:06 | 56.08810 | 59.64639 | 16047 ft | 355 kts | 222° |
| 2026-05-04 08:08 | 55.91780 | 59.61916 | 18449 ft | 377 kts | 175° |
| 2026-05-04 08:08 | 55.89180 | 59.62641 | 18736 ft | 379 kts | 175° |
| 2026-05-04 08:10 | 55.68003 | 59.68559 | 20984 ft | 393 kts | 175° |
| 2026-05-04 08:11 | 55.65299 | 59.69312 | 21258 ft | 394 kts | 175° |
| 2026-05-04 08:11 | 55.59852 | 59.70818 | 21823 ft | 398 kts | 175° |
| 2026-05-04 08:11 | 55.57107 | 59.71581 | 22095 ft | 400 kts | 175° |
| 2026-05-04 08:12 | 55.54359 | 59.72345 | 22382 ft | 401 kts | 175° |
| 2026-05-04 08:12 | 55.51595 | 59.73114 | 22656 ft | 403 kts | 176° |
| 2026-05-04 08:12 | 55.48819 | 59.73883 | 22929 ft | 404 kts | 176° |
| 2026-05-04 08:12 | 55.46033 | 59.74648 | 23202 ft | 406 kts | 176° |
| 2026-05-04 08:13 | 55.43275 | 59.75405 | 23465 ft | 407 kts | 176° |
| 2026-05-04 08:13 | 55.40468 | 59.75837 | 23710 ft | 403 kts | 185° |
| 2026-05-04 08:13 | 55.37690 | 59.75402 | 23943 ft | 399 kts | 195° |
| 2026-05-04 08:13 | 55.35022 | 59.74153 | 24200 ft | 396 kts | 202° |
| 2026-05-04 08:14 | 55.32400 | 59.72643 | 24453 ft | 398 kts | 202° |
| 2026-05-04 08:14 | 55.29765 | 59.71134 | 24737 ft | 398 kts | 202° |
| 2026-05-04 08:14 | 55.27129 | 59.69633 | 24998 ft | 399 kts | 202° |
| 2026-05-04 08:16 | 55.08502 | 59.59131 | 26621 ft | 405 kts | 203° |
| 2026-05-04 08:16 | 55.05815 | 59.57622 | 26828 ft | 406 kts | 203° |
| 2026-05-04 08:16 | 55.03128 | 59.56116 | 27032 ft | 407 kts | 203° |
| 2026-05-04 08:17 | 55.00431 | 59.54605 | 27230 ft | 408 kts | 203° |
| 2026-05-04 08:17 | 54.97764 | 59.53113 | 27443 ft | 408 kts | 203° |
| 2026-05-04 08:17 | 54.95057 | 59.51604 | 27644 ft | 409 kts | 203° |
| 2026-05-04 08:17 | 54.92339 | 59.50095 | 27808 ft | 410 kts | 203° |
| 2026-05-04 08:19 | 54.73255 | 59.39525 | 28974 ft | 412 kts | 204° |
| 2026-05-04 08:19 | 54.70522 | 59.38025 | 29160 ft | 412 kts | 204° |
| 2026-05-04 08:20 | 54.67798 | 59.36532 | 29363 ft | 411 kts | 204° |
| 2026-05-04 08:20 | 54.65080 | 59.35037 | 29540 ft | 410 kts | 204° |
| 2026-05-04 08:20 | 54.62359 | 59.33541 | 29710 ft | 410 kts | 204° |
| 2026-05-04 08:20 | 54.59650 | 59.32051 | 29888 ft | 409 kts | 204° |
| 2026-05-04 08:21 | 54.56941 | 59.30563 | 30080 ft | 408 kts | 204° |
| 2026-05-04 08:21 | 54.54277 | 59.29105 | 30261 ft | 407 kts | 204° |
| 2026-05-04 08:21 | 54.51578 | 59.27635 | 30432 ft | 406 kts | 204° |
| 2026-05-04 08:21 | 54.48888 | 59.26168 | 30592 ft | 406 kts | 204° |
| 2026-05-04 08:22 | 54.46194 | 59.24700 | 30766 ft | 405 kts | 204° |
| 2026-05-04 08:22 | 54.43509 | 59.23241 | 30898 ft | 405 kts | 204° |
| 2026-05-04 08:24 | 54.22505 | 59.11907 | 30934 ft | 395 kts | 205° |
| 2026-05-04 08:24 | 54.17262 | 59.09082 | 30941 ft | 395 kts | 205° |
| 2026-05-04 08:25 | 54.12023 | 59.06279 | 30936 ft | 394 kts | 205° |
| 2026-05-04 08:25 | 54.06823 | 59.03512 | 30941 ft | 394 kts | 205° |
| 2026-05-04 08:27 | 53.85962 | 58.92437 | 30930 ft | 392 kts | 205° |
| 2026-05-04 08:28 | 53.80790 | 58.89710 | 30936 ft | 392 kts | 204° |
| 2026-05-04 08:28 | 53.75579 | 58.86987 | 30934 ft | 392 kts | 204° |
| 2026-05-04 08:29 | 53.70374 | 58.84268 | 30930 ft | 391 kts | 205° |
| 2026-05-04 08:31 | 53.49589 | 58.73441 | 30929 ft | 392 kts | 204° |
| 2026-05-04 08:33 | 53.28756 | 58.62695 | 30927 ft | 394 kts | 204° |
| 2026-05-04 08:35 | 53.07925 | 58.52041 | 30912 ft | 393 kts | 203° |
| 2026-05-04 08:35 | 53.02702 | 58.49411 | 30914 ft | 393 kts | 204° |
| 2026-05-04 08:37 | 52.84346 | 58.40171 | 30936 ft | 395 kts | 204° |
| 2026-05-04 08:38 | 52.79100 | 58.37564 | 30924 ft | 394 kts | 203° |
| 2026-05-04 08:38 | 52.73840 | 58.34898 | 30919 ft | 397 kts | 202° |
| 2026-05-04 08:40 | 52.52647 | 58.24381 | 30938 ft | 402 kts | 202° |
| 2026-05-04 08:41 | 52.47281 | 58.21747 | 30958 ft | 402 kts | 202° |
| 2026-05-04 08:41 | 52.41955 | 58.19129 | 30952 ft | 404 kts | 202° |
| 2026-05-04 08:42 | 52.36575 | 58.16473 | 30963 ft | 403 kts | 202° |
| 2026-05-04 08:42 | 52.31235 | 58.13847 | 30966 ft | 400 kts | 202° |
| 2026-05-04 08:43 | 52.25895 | 58.11223 | 30957 ft | 401 kts | 202° |
| 2026-05-04 08:43 | 52.20586 | 58.08648 | 30953 ft | 401 kts | 202° |
| 2026-05-04 08:44 | 52.15238 | 58.06063 | 30957 ft | 400 kts | 201° |
| 2026-05-04 08:46 | 51.93912 | 57.95750 | 30943 ft | 401 kts | 202° |
| 2026-05-04 08:46 | 51.88558 | 57.93178 | 30950 ft | 401 kts | 202° |
| 2026-05-04 08:47 | 51.83203 | 57.90600 | 30927 ft | 401 kts | 202° |
| 2026-05-04 08:47 | 51.77861 | 57.88037 | 30928 ft | 400 kts | 202° |
| 2026-05-04 08:48 | 51.72549 | 57.85516 | 30939 ft | 401 kts | 201° |
| 2026-05-04 08:48 | 51.67191 | 57.82988 | 30948 ft | 401 kts | 201° |
| 2026-05-04 08:49 | 51.61835 | 57.80450 | 30950 ft | 402 kts | 201° |
| 2026-05-04 08:50 | 51.43087 | 57.71601 | 30953 ft | 402 kts | 201° |
| 2026-05-04 08:51 | 51.37711 | 57.69083 | 30952 ft | 403 kts | 201° |
| 2026-05-04 08:51 | 51.32331 | 57.66555 | 30953 ft | 403 kts | 201° |
| 2026-05-04 08:52 | 51.26979 | 57.64055 | 30955 ft | 404 kts | 201° |
| 2026-05-04 08:52 | 51.21580 | 57.61546 | 30956 ft | 404 kts | 201° |
| 2026-05-04 08:54 | 50.99982 | 57.51541 | 30937 ft | 406 kts | 201° |
| 2026-05-04 08:55 | 50.94553 | 57.49042 | 30940 ft | 407 kts | 201° |
| 2026-05-04 08:55 | 50.89117 | 57.46548 | 30940 ft | 407 kts | 201° |
| 2026-05-04 09:01 | 50.31668 | 57.20558 | 30940 ft | 411 kts | 200° |
| 2026-05-04 09:01 | 50.26271 | 57.17729 | 30932 ft | 406 kts | 210° |
| 2026-05-04 09:02 | 50.21574 | 57.12962 | 30933 ft | 402 kts | 218° |
| 2026-05-04 09:02 | 50.17032 | 57.07959 | 30927 ft | 403 kts | 218° |
| 2026-05-04 09:03 | 50.12448 | 57.02941 | 30937 ft | 403 kts | 218° |
| 2026-05-04 09:03 | 50.07855 | 56.97924 | 30939 ft | 403 kts | 218° |
| 2026-05-04 09:04 | 50.03263 | 56.92927 | 30943 ft | 403 kts | 218° |
| 2026-05-04 09:04 | 49.98697 | 56.87975 | 30936 ft | 403 kts | 218° |
| 2026-05-04 09:05 | 49.94092 | 56.82973 | 30927 ft | 405 kts | 218° |
| 2026-05-04 09:05 | 49.89463 | 56.77960 | 30927 ft | 407 kts | 218° |
| 2026-05-04 09:06 | 49.84818 | 56.72938 | 30933 ft | 407 kts | 217° |
| 2026-05-04 09:08 | 49.66197 | 56.52987 | 30935 ft | 408 kts | 217° |
| 2026-05-04 09:08 | 49.61560 | 56.48027 | 30940 ft | 409 kts | 218° |
| 2026-05-04 09:09 | 49.56892 | 56.43053 | 30936 ft | 408 kts | 217° |
| 2026-05-04 09:09 | 49.52218 | 56.38107 | 30940 ft | 408 kts | 217° |
| 2026-05-04 09:10 | 49.47544 | 56.33170 | 30937 ft | 408 kts | 217° |
| 2026-05-04 09:10 | 49.42898 | 56.28266 | 30936 ft | 408 kts | 217° |
| 2026-05-04 09:11 | 49.38222 | 56.23334 | 30950 ft | 407 kts | 216° |
| 2026-05-04 09:11 | 49.33565 | 56.18425 | 30958 ft | 405 kts | 216° |
| 2026-05-04 09:12 | 49.28921 | 56.13555 | 30946 ft | 405 kts | 216° |
| 2026-05-04 09:14 | 49.10457 | 55.94325 | 30920 ft | 398 kts | 215° |
| 2026-05-04 09:14 | 49.05874 | 55.89571 | 30905 ft | 403 kts | 216° |
| 2026-05-04 09:15 | 49.01245 | 55.84779 | 30912 ft | 403 kts | 216° |
| 2026-05-04 09:15 | 48.96615 | 55.79997 | 30925 ft | 403 kts | 216° |
| 2026-05-04 09:17 | 48.75738 | 55.58582 | 30914 ft | 404 kts | 215° |
| 2026-05-04 09:18 | 48.71065 | 55.53819 | 30918 ft | 405 kts | 215° |
| 2026-05-04 09:18 | 48.66423 | 55.49112 | 30919 ft | 405 kts | 215° |
| 2026-05-04 09:19 | 48.61743 | 55.44360 | 30919 ft | 405 kts | 215° |
| 2026-05-04 09:19 | 48.57060 | 55.39606 | 30921 ft | 406 kts | 215° |
| 2026-05-04 09:20 | 48.52364 | 55.34862 | 30922 ft | 406 kts | 215° |
| 2026-05-04 09:20 | 48.47692 | 55.30165 | 30921 ft | 406 kts | 215° |
| 2026-05-04 09:21 | 48.42994 | 55.25433 | 30925 ft | 406 kts | 215° |
| 2026-05-04 09:21 | 48.38290 | 55.20710 | 30929 ft | 406 kts | 215° |
| 2026-05-04 09:22 | 48.33615 | 55.16035 | 30931 ft | 406 kts | 215° |
| 2026-05-04 09:22 | 48.28906 | 55.11342 | 30932 ft | 406 kts | 214° |
| 2026-05-04 09:23 | 48.24205 | 55.06654 | 30936 ft | 405 kts | 215° |
| 2026-05-04 09:23 | 48.19514 | 55.01985 | 30936 ft | 405 kts | 215° |
| 2026-05-04 09:25 | 48.00741 | 54.83433 | 30940 ft | 405 kts | 214° |
| 2026-05-04 09:26 | 47.96070 | 54.78830 | 30929 ft | 406 kts | 214° |
| 2026-05-04 09:26 | 47.91350 | 54.74186 | 30926 ft | 407 kts | 214° |
| 2026-05-04 09:27 | 47.86635 | 54.69512 | 30923 ft | 408 kts | 214° |
| 2026-05-04 09:27 | 47.81914 | 54.64817 | 30928 ft | 408 kts | 214° |
| 2026-05-04 09:28 | 47.77188 | 54.60138 | 30925 ft | 408 kts | 214° |
| 2026-05-04 09:28 | 47.72495 | 54.55500 | 30928 ft | 408 kts | 214° |
| 2026-05-04 09:29 | 47.67770 | 54.50840 | 30929 ft | 407 kts | 214° |
| 2026-05-04 09:29 | 47.63042 | 54.46211 | 30927 ft | 407 kts | 214° |
| 2026-05-04 09:30 | 47.58312 | 54.41591 | 30926 ft | 407 kts | 214° |
| 2026-05-04 09:30 | 47.53623 | 54.37001 | 30920 ft | 407 kts | 214° |
| 2026-05-04 09:31 | 47.48896 | 54.32383 | 30921 ft | 407 kts | 214° |
| 2026-05-04 09:31 | 47.44164 | 54.27767 | 30924 ft | 408 kts | 214° |
| 2026-05-04 09:32 | 47.39422 | 54.23165 | 30920 ft | 408 kts | 214° |
| 2026-05-04 09:34 | 47.20459 | 54.04861 | 30921 ft | 409 kts | 214° |
| 2026-05-04 09:34 | 47.15701 | 54.00276 | 30920 ft | 409 kts | 214° |
| 2026-05-04 09:35 | 47.10970 | 53.95728 | 30918 ft | 410 kts | 213° |
| 2026-05-04 09:35 | 47.06195 | 53.91162 | 30912 ft | 410 kts | 213° |
| 2026-05-04 09:37 | 46.89415 | 53.75185 | 31076 ft | 416 kts | 213° |
| 2026-05-04 09:37 | 46.86982 | 53.72880 | 31196 ft | 418 kts | 213° |
| 2026-05-04 09:38 | 46.84537 | 53.70562 | 31325 ft | 419 kts | 213° |
| 2026-05-04 09:38 | 46.82087 | 53.68240 | 31453 ft | 421 kts | 213° |
| 2026-05-04 09:38 | 46.79630 | 53.65915 | 31589 ft | 422 kts | 213° |
| 2026-05-04 09:38 | 46.77164 | 53.63590 | 31755 ft | 422 kts | 213° |
| 2026-05-04 09:39 | 46.74700 | 53.61274 | 31911 ft | 422 kts | 213° |
| 2026-05-04 09:39 | 46.72236 | 53.58955 | 32077 ft | 422 kts | 213° |
| 2026-05-04 09:39 | 46.69803 | 53.56662 | 32267 ft | 421 kts | 213° |
| 2026-05-04 09:39 | 46.67345 | 53.54348 | 32479 ft | 421 kts | 213° |
| 2026-05-04 09:40 | 46.64890 | 53.52036 | 32659 ft | 420 kts | 213° |
| 2026-05-04 09:40 | 46.62435 | 53.49729 | 32831 ft | 420 kts | 213° |
| 2026-05-04 09:40 | 46.59978 | 53.47426 | 33001 ft | 420 kts | 213° |
| 2026-05-04 09:40 | 46.57524 | 53.45130 | 33182 ft | 419 kts | 213° |
| 2026-05-04 09:41 | 46.55073 | 53.42841 | 33360 ft | 419 kts | 212° |
| 2026-05-04 09:42 | 46.37985 | 53.26933 | 33925 ft | 418 kts | 212° |
| 2026-05-04 09:43 | 46.33092 | 53.22398 | 33925 ft | 418 kts | 212° |
| 2026-05-04 09:43 | 46.28191 | 53.17866 | 33914 ft | 418 kts | 212° |
| 2026-05-04 09:44 | 46.23311 | 53.13377 | 33916 ft | 419 kts | 212° |
| 2026-05-04 09:46 | 46.03672 | 52.95364 | 33902 ft | 420 kts | 212° |
| 2026-05-04 09:46 | 45.98735 | 52.90859 | 33896 ft | 420 kts | 212° |
| 2026-05-04 09:47 | 45.93780 | 52.86370 | 33890 ft | 422 kts | 212° |
| 2026-05-04 09:49 | 45.73880 | 52.68335 | 33895 ft | 425 kts | 212° |
| 2026-05-04 09:51 | 45.56344 | 52.52598 | 33898 ft | 427 kts | 212° |
| 2026-05-04 09:51 | 45.51315 | 52.48100 | 33901 ft | 427 kts | 212° |
| 2026-05-04 09:52 | 45.46282 | 52.43603 | 33901 ft | 427 kts | 212° |
| 2026-05-04 09:52 | 45.41283 | 52.39149 | 33899 ft | 427 kts | 212° |
| 2026-05-04 09:53 | 45.36244 | 52.34678 | 33901 ft | 427 kts | 212° |
| 2026-05-04 09:53 | 45.31206 | 52.30210 | 33898 ft | 427 kts | 212° |
| 2026-05-04 09:54 | 45.26160 | 52.25749 | 33896 ft | 427 kts | 212° |
| 2026-05-04 09:54 | 45.21153 | 52.21326 | 33905 ft | 427 kts | 212° |
| 2026-05-04 09:55 | 45.16108 | 52.16892 | 33900 ft | 427 kts | 212° |
| 2026-05-04 09:55 | 45.11060 | 52.12464 | 33897 ft | 426 kts | 212° |
| 2026-05-04 09:56 | 45.06018 | 52.08042 | 33898 ft | 426 kts | 212° |
| 2026-05-04 09:56 | 45.00977 | 52.03624 | 33900 ft | 426 kts | 212° |
| 2026-05-04 09:57 | 44.95970 | 51.99241 | 33903 ft | 426 kts | 212° |
| 2026-05-04 09:57 | 44.90926 | 51.94836 | 33900 ft | 427 kts | 213° |
| 2026-05-04 09:58 | 44.85871 | 51.90432 | 33894 ft | 428 kts | 213° |
| 2026-05-04 09:58 | 44.80806 | 51.86036 | 33891 ft | 427 kts | 213° |
| 2026-05-04 10:00 | 44.60560 | 51.68559 | 33901 ft | 427 kts | 213° |
| 2026-05-04 10:04 | 44.25114 | 51.38297 | 33897 ft | 427 kts | 213° |
| 2026-05-04 10:04 | 44.20037 | 51.33994 | 33899 ft | 427 kts | 213° |
| 2026-05-04 10:05 | 44.14952 | 51.29706 | 33896 ft | 427 kts | 213° |
| 2026-05-04 10:05 | 44.09861 | 51.25417 | 33897 ft | 428 kts | 213° |
| 2026-05-04 10:06 | 44.04809 | 51.21164 | 33895 ft | 428 kts | 213° |
| 2026-05-04 10:06 | 43.99717 | 51.16889 | 33894 ft | 428 kts | 212° |
| 2026-05-04 10:08 | 43.86014 | 51.01852 | 33902 ft | 422 kts | 242° |
| 2026-05-04 10:08 | 43.84796 | 50.98159 | 33898 ft | 422 kts | 247° |
| 2026-05-04 10:08 | 43.82573 | 50.90625 | 33892 ft | 423 kts | 247° |
| 2026-05-04 10:09 | 43.80322 | 50.83095 | 33892 ft | 423 kts | 247° |
| 2026-05-04 10:09 | 43.78067 | 50.75558 | 33885 ft | 424 kts | 247° |
| 2026-05-04 10:10 | 43.75826 | 50.68068 | 33887 ft | 425 kts | 247° |
| 2026-05-04 10:10 | 43.73567 | 50.60520 | 33886 ft | 425 kts | 247° |
| 2026-05-04 10:11 | 43.71300 | 50.52961 | 33882 ft | 426 kts | 247° |
| 2026-05-04 10:11 | 43.69017 | 50.45396 | 33889 ft | 426 kts | 246° |
| 2026-05-04 10:12 | 43.66742 | 50.37883 | 33891 ft | 427 kts | 246° |
| 2026-05-04 10:12 | 43.64445 | 50.30321 | 33887 ft | 427 kts | 246° |
| 2026-05-04 10:13 | 43.62148 | 50.22752 | 33884 ft | 428 kts | 246° |
| 2026-05-04 10:13 | 43.59838 | 50.15182 | 33889 ft | 428 kts | 246° |
| 2026-05-04 10:14 | 43.57537 | 50.07658 | 33896 ft | 429 kts | 246° |
| 2026-05-04 10:16 | 43.48229 | 49.77437 | 33906 ft | 429 kts | 246° |
| 2026-05-04 10:16 | 43.45878 | 49.69881 | 33906 ft | 429 kts | 246° |
| 2026-05-04 10:17 | 43.43531 | 49.62343 | 33909 ft | 428 kts | 246° |
| 2026-05-04 10:19 | 43.40322 | 49.34507 | 33906 ft | 433 kts | 271° |
| 2026-05-04 10:19 | 43.40484 | 49.30375 | 33902 ft | 433 kts | 270° |
| 2026-05-04 10:19 | 43.40801 | 49.22110 | 33899 ft | 433 kts | 270° |
| 2026-05-04 10:20 | 43.41122 | 49.13891 | 33899 ft | 433 kts | 270° |
| 2026-05-04 10:20 | 43.41443 | 49.05609 | 33897 ft | 434 kts | 270° |
| 2026-05-04 10:21 | 43.41753 | 48.97314 | 33899 ft | 434 kts | 270° |
| 2026-05-04 10:21 | 43.42065 | 48.89019 | 33897 ft | 435 kts | 270° |
| 2026-05-04 10:22 | 43.42514 | 48.76614 | 33890 ft | 435 kts | 270° |
| 2026-05-04 10:23 | 43.42758 | 48.69705 | 33888 ft | 435 kts | 269° |
| 2026-05-04 10:25 | 43.43929 | 48.34953 | 33881 ft | 439 kts | 269° |
| 2026-05-04 10:25 | 43.44194 | 48.26564 | 33883 ft | 439 kts | 269° |
| 2026-05-04 10:26 | 43.44405 | 48.19578 | 33883 ft | 440 kts | 269° |
| 2026-05-04 10:26 | 43.44659 | 48.11163 | 33884 ft | 441 kts | 269° |
| 2026-05-04 10:27 | 43.44912 | 48.02730 | 33886 ft | 441 kts | 269° |
| 2026-05-04 10:27 | 43.45154 | 47.94291 | 33885 ft | 442 kts | 269° |
| 2026-05-04 10:28 | 43.45384 | 47.85898 | 33883 ft | 442 kts | 269° |
| 2026-05-04 10:28 | 43.45619 | 47.77432 | 33890 ft | 443 kts | 269° |
| 2026-05-04 10:29 | 43.45852 | 47.68963 | 33896 ft | 443 kts | 268° |
| 2026-05-04 10:29 | 43.46063 | 47.60494 | 33894 ft | 443 kts | 268° |
| 2026-05-04 10:30 | 43.46272 | 47.52023 | 33896 ft | 443 kts | 268° |
| 2026-05-04 10:30 | 43.46478 | 47.43618 | 33905 ft | 443 kts | 268° |
| 2026-05-04 10:31 | 43.46676 | 47.35150 | 33903 ft | 442 kts | 268° |
| 2026-05-04 10:32 | 43.47331 | 47.05596 | 33910 ft | 442 kts | 268° |
| 2026-05-04 10:33 | 43.47500 | 46.97138 | 33906 ft | 442 kts | 268° |
| 2026-05-04 10:33 | 43.47659 | 46.88681 | 33911 ft | 442 kts | 268° |
| 2026-05-04 10:34 | 43.47820 | 46.80216 | 33907 ft | 442 kts | 268° |
| 2026-05-04 10:34 | 43.47979 | 46.71809 | 33906 ft | 442 kts | 268° |
| 2026-05-04 10:35 | 43.48129 | 46.63351 | 33906 ft | 443 kts | 268° |
| 2026-05-04 10:35 | 43.48266 | 46.54867 | 33907 ft | 443 kts | 268° |
| 2026-05-04 10:36 | 43.48400 | 46.46385 | 33908 ft | 444 kts | 268° |
| 2026-05-04 10:36 | 43.48523 | 46.37946 | 33910 ft | 444 kts | 268° |
| 2026-05-04 10:37 | 43.48651 | 46.29439 | 33913 ft | 444 kts | 268° |
| 2026-05-04 10:37 | 43.48760 | 46.20934 | 33908 ft | 444 kts | 268° |
| 2026-05-04 10:39 | 43.50059 | 45.91208 | 33904 ft | 447 kts | 273° |
| 2026-05-04 10:40 | 43.50757 | 45.82690 | 33908 ft | 448 kts | 273° |
| 2026-05-04 10:40 | 43.51455 | 45.74172 | 33914 ft | 447 kts | 273° |
| 2026-05-04 10:41 | 43.52147 | 45.65716 | 33919 ft | 447 kts | 273° |
| 2026-05-04 10:41 | 43.52833 | 45.57205 | 33920 ft | 446 kts | 272° |
| 2026-05-04 10:42 | 43.53509 | 45.48707 | 33921 ft | 446 kts | 272° |
| 2026-05-04 10:42 | 43.54175 | 45.40200 | 33925 ft | 446 kts | 272° |
| 2026-05-04 10:43 | 43.54840 | 45.31705 | 33929 ft | 446 kts | 272° |
| 2026-05-04 10:45 | 43.57424 | 44.97834 | 33934 ft | 444 kts | 272° |
| 2026-05-04 10:45 | 43.58055 | 44.89366 | 33933 ft | 444 kts | 272° |
| 2026-05-04 10:46 | 43.58672 | 44.80961 | 33931 ft | 443 kts | 271° |
| 2026-05-04 10:46 | 43.59288 | 44.72498 | 33932 ft | 444 kts | 271° |
| 2026-05-04 10:47 | 43.59900 | 44.64036 | 33932 ft | 443 kts | 271° |
| 2026-05-04 10:47 | 43.60500 | 44.55568 | 33929 ft | 443 kts | 271° |
| 2026-05-04 10:49 | 43.62854 | 44.21756 | 33919 ft | 444 kts | 270° |
| 2026-05-04 10:50 | 43.63410 | 44.13337 | 33918 ft | 444 kts | 270° |
| 2026-05-04 10:52 | 43.64389 | 43.79394 | 33919 ft | 442 kts | 267° |
| 2026-05-04 10:52 | 43.64624 | 43.70967 | 33922 ft | 442 kts | 267° |
| 2026-05-04 10:54 | 43.65474 | 43.37080 | 33925 ft | 441 kts | 267° |
| 2026-05-04 10:56 | 43.66229 | 43.03359 | 33923 ft | 439 kts | 267° |
| 2026-05-04 10:57 | 43.66398 | 42.94985 | 33923 ft | 439 kts | 267° |
| 2026-05-04 10:57 | 43.66564 | 42.86550 | 33926 ft | 439 kts | 267° |
| 2026-05-04 10:58 | 43.66728 | 42.78129 | 33921 ft | 439 kts | 267° |
| 2026-05-04 10:58 | 43.66879 | 42.69703 | 33916 ft | 439 kts | 267° |
| 2026-05-04 10:59 | 43.67026 | 42.61273 | 33914 ft | 439 kts | 267° |
| 2026-05-04 10:59 | 43.67171 | 42.52893 | 33912 ft | 440 kts | 267° |
| 2026-05-04 11:00 | 43.67309 | 42.44447 | 33912 ft | 440 kts | 267° |
| 2026-05-04 11:02 | 43.67787 | 42.10603 | 33926 ft | 442 kts | 267° |
| 2026-05-04 11:05 | 43.68400 | 41.46954 | 33884 ft | 443 kts | 267° |
| 2026-05-04 11:06 | 43.68466 | 41.38442 | 33887 ft | 443 kts | 267° |
| 2026-05-04 11:06 | 43.68526 | 41.29931 | 33893 ft | 443 kts | 267° |
| 2026-05-04 11:10 | 43.68755 | 40.69837 | 33878 ft | 451 kts | 267° |
| 2026-05-04 11:12 | 43.68842 | 40.35137 | 33883 ft | 454 kts | 267° |
| 2026-05-04 11:12 | 43.68841 | 40.26421 | 33885 ft | 454 kts | 267° |
| 2026-05-04 11:13 | 43.68662 | 40.17728 | 33888 ft | 450 kts | 256° |
| 2026-05-04 11:13 | 43.67681 | 40.13670 | 33890 ft | 443 kts | 239° |
| 2026-05-04 11:13 | 43.65996 | 40.10266 | 33594 ft | 429 kts | 225° |
| 2026-05-04 11:14 | 43.65303 | 40.09272 | 33211 ft | 426 kts | 220° |
| 2026-05-04 11:16 | 43.40246 | 39.93831 | 21205 ft | 382 kts | 197° |
| 2026-05-04 11:16 | 43.37729 | 39.92678 | 20866 ft | 375 kts | 197° |
| 2026-05-04 11:16 | 43.35303 | 39.91573 | 20734 ft | 359 kts | 195° |
| 2026-05-04 11:17 | 43.32977 | 39.90522 | 20596 ft | 345 kts | 197° |
| 2026-05-04 11:17 | 43.30736 | 39.89495 | 20439 ft | 334 kts | 196° |
| 2026-05-04 11:19 | 43.16168 | 39.82893 | 17377 ft | 309 kts | 197° |
| 2026-05-04 11:19 | 43.14147 | 39.81983 | 16925 ft | 303 kts | 196° |
| 2026-05-04 11:19 | 43.12154 | 39.81093 | 16426 ft | 300 kts | 195° |
| 2026-05-04 11:19 | 43.10162 | 39.80214 | 16042 ft | 298 kts | 195° |
| 2026-05-04 11:20 | 43.08256 | 39.79357 | 15790 ft | 288 kts | 195° |
| 2026-05-04 11:20 | 43.06366 | 39.78491 | 15532 ft | 283 kts | 196° |
| 2026-05-04 11:20 | 43.04532 | 39.77662 | 15283 ft | 272 kts | 195° |
| 2026-05-04 11:20 | 43.02761 | 39.76872 | 15037 ft | 266 kts | 195° |
| 2026-05-04 11:22 | 42.93650 | 39.83316 | 13270 ft | 266 kts | 110° |
| 2026-05-04 11:22 | 42.93447 | 39.85845 | 13013 ft | 270 kts | 85° |
| 2026-05-04 11:23 | 42.94095 | 39.88270 | 12749 ft | 279 kts | 60° |
| 2026-05-04 11:23 | 42.95506 | 39.90096 | 12487 ft | 285 kts | 31° |
| 2026-05-04 11:24 | 43.02999 | 39.81272 | 10962 ft | 276 kts | 285° |
| 2026-05-04 11:25 | 43.03591 | 39.78780 | 10711 ft | 274 kts | 283° |
| 2026-05-04 11:25 | 43.04085 | 39.76291 | 10447 ft | 269 kts | 271° |
| 2026-05-04 11:25 | 43.03920 | 39.73785 | 10190 ft | 263 kts | 249° |
| 2026-05-04 11:26 | 43.01632 | 39.70179 | 9804 ft | 256 kts | 202° |
| 2026-05-04 11:27 | 42.93997 | 39.80553 | 8929 ft | 262 kts | 109° |
| 2026-05-04 11:28 | 42.93437 | 39.82928 | 8806 ft | 261 kts | 110° |
| 2026-05-04 11:28 | 42.93089 | 39.85329 | 8693 ft | 262 kts | 90° |
| 2026-05-04 11:28 | 42.93459 | 39.87742 | 8553 ft | 261 kts | 65° |
| 2026-05-04 11:28 | 42.94520 | 39.89748 | 8429 ft | 264 kts | 42° |
| 2026-05-04 11:29 | 42.96096 | 39.90974 | 8297 ft | 262 kts | 16° |
| 2026-05-04 11:29 | 42.97909 | 39.91210 | 8175 ft | 265 kts | 350° |
| 2026-05-04 11:29 | 42.99636 | 39.90390 | 8050 ft | 263 kts | 324° |
| 2026-05-04 11:29 | 43.00926 | 39.88713 | 8007 ft | 255 kts | 302° |
| 2026-05-04 11:31 | 43.05079 | 39.72197 | 7619 ft | 285 kts | 286° |
| 2026-05-04 11:33 | 43.09175 | 39.54500 | 6272 ft | 278 kts | 285° |
| 2026-05-04 11:33 | 43.09750 | 39.51975 | 6074 ft | 276 kts | 287° |
| 2026-05-04 11:33 | 43.10426 | 39.49540 | 5890 ft | 277 kts | 300° |
| 2026-05-04 11:34 | 43.11708 | 39.47636 | 5700 ft | 271 kts | 324° |
| 2026-05-04 11:34 | 43.13440 | 39.46617 | 5495 ft | 274 kts | 349° |
| 2026-05-04 11:34 | 43.15315 | 39.46558 | 5290 ft | 275 kts | 6° |
| 2026-05-04 11:34 | 43.17142 | 39.47257 | 5086 ft | 273 kts | 26° |
| 2026-05-04 11:35 | 43.18691 | 39.48749 | 4872 ft | 273 kts | 46° |
| 2026-05-04 11:35 | 43.19750 | 39.50877 | 4686 ft | 270 kts | 66° |
| 2026-05-04 11:35 | 43.20359 | 39.53328 | 4501 ft | 273 kts | 72° |
| 2026-05-04 11:35 | 43.20938 | 39.55816 | 4317 ft | 272 kts | 73° |
| 2026-05-04 11:36 | 43.21511 | 39.58264 | 4130 ft | 269 kts | 72° |
| 2026-05-04 11:36 | 43.22079 | 39.60723 | 3948 ft | 270 kts | 71° |
| 2026-05-04 11:36 | 43.22635 | 39.63176 | 3751 ft | 268 kts | 73° |
| 2026-05-04 11:36 | 43.23199 | 39.65566 | 3570 ft | 268 kts | 72° |
| 2026-05-04 11:37 | 43.23763 | 39.67983 | 3389 ft | 265 kts | 72° |
| 2026-05-04 11:37 | 43.24318 | 39.70412 | 3218 ft | 269 kts | 71° |
| 2026-05-04 11:37 | 43.24877 | 39.72853 | 3038 ft | 269 kts | 72° |
| 2026-05-04 11:37 | 43.25441 | 39.75280 | 2862 ft | 266 kts | 71° |
| 2026-05-04 11:38 | 43.25990 | 39.77656 | 2680 ft | 257 kts | 72° |
| 2026-05-04 11:38 | 43.26541 | 39.79903 | 2556 ft | 242 kts | 64° |
| 2026-05-04 11:38 | 43.27383 | 39.81782 | 2455 ft | 229 kts | 48° |
| 2026-05-04 11:38 | 43.28564 | 39.83251 | 2397 ft | 232 kts | 32° |
| 2026-05-04 11:39 | 43.29964 | 39.84380 | 2300 ft | 234 kts | 27° |
| 2026-05-04 11:39 | 43.31402 | 39.85454 | 2203 ft | 236 kts | 27° |
| 2026-05-04 11:40 | 43.39633 | 39.91604 | 893 ft | 210 kts | 27° |
| 2026-05-04 11:41 | 43.40860 | 39.92531 | 643 ft | 194 kts | 27° |
| 2026-05-04 11:41 | 43.41981 | 39.93371 | 409 ft | 174 kts | 27° |
| 2026-05-04 11:41 | 43.42997 | 39.94132 | 195 ft | 159 kts | 27° |
| 2026-05-04 11:41 | 43.43942 | 39.94837 | 74 ft | 141 kts | 28° |
| 2026-05-04 11:42 | 43.44531 | 39.95282 | 82 ft | 53 kts | 28° |
| 2026-05-04 11:42 | 43.44650 | 39.95370 | 85 ft | 9 kts | 28° |
| 2026-05-04 11:42 | 43.44752 | 39.95445 | 86 ft | 23 kts | 28° |
| 2026-05-04 11:42 | 43.44921 | 39.95568 | 90 ft | 22 kts | 27° |
| 2026-05-04 11:43 | 43.45007 | 39.95540 | 94 ft | 7 kts | 332° |
| 2026-05-04 11:43 | 43.45042 | 39.95520 | 91 ft | 4 kts | 337° |
| 2026-05-04 11:43 | 43.45064 | 39.95504 | 92 ft | 6 kts | 324° |
| 2026-05-04 11:43 | 43.45097 | 39.95406 | 90 ft | 13 kts | 275° |
| 2026-05-04 11:44 | 43.45067 | 39.95277 | 87 ft | 15 kts | 249° |
| 2026-05-04 11:44 | 43.45017 | 39.95139 | 84 ft | 17 kts | 243° |
| 2026-05-04 11:44 | 43.44951 | 39.94993 | 85 ft | 19 kts | 236° |
| 2026-05-04 11:44 | 43.44903 | 39.94862 | 76 ft | 0 kts | 245° |
| 2026-05-04 11:45 | 43.44902 | 39.94861 | 76 ft | 2 kts | 245° |
| 2026-05-04 11:45 | 43.44881 | 39.94797 | 69 ft | 10 kts | 245° |
| 2026-05-04 11:45 | 43.44852 | 39.94712 | 68 ft | 9 kts | 245° |
| 2026-05-04 11:46 | 43.44825 | 39.94634 | 70 ft | 9 kts | 245° |
| 2026-05-04 11:46 | 43.44800 | 39.94562 | 75 ft | 8 kts | 245° |
| 2026-05-04 11:46 | 43.44779 | 39.94497 | 70 ft | 7 kts | 244° |
| 2026-05-04 11:46 | 43.44760 | 39.94439 | 68 ft | 6 kts | 245° |
| 2026-05-04 11:47 | 43.44743 | 39.94389 | 71 ft | 6 kts | 245° |
| 2026-05-04 11:47 | 43.44726 | 39.94340 | 74 ft | 8 kts | 245° |
| 2026-05-04 11:47 | 43.44733 | 39.94277 | 74 ft | 6 kts | 316° |
| 2026-05-04 11:47 | 43.44769 | 39.94250 | 74 ft | 5 kts | 333° |
| 2026-05-04 11:48 | 43.44773 | 39.94248 | 74 ft | 0 kts | 333° |
| 2026-05-04 12:46 | 43.44770 | 39.94249 | 75 ft | 2 kts | 333° |
| 2026-05-04 12:46 | 43.44748 | 39.94265 | 64 ft | 5 kts | 333° |
| 2026-05-04 12:46 | 43.44704 | 39.94294 | 65 ft | 7 kts | 358° |
| 2026-05-04 12:46 | 43.44685 | 39.94289 | 75 ft | 2 kts | 70° |
| 2026-05-04 12:47 | 43.44713 | 39.94384 | 66 ft | 16 kts | 67° |
| 2026-05-04 12:47 | 43.44751 | 39.94500 | 68 ft | 0 kts | 65° |
| 2026-05-04 12:49 | 43.44754 | 39.94510 | 75 ft | 8 kts | 65° |
| 2026-05-04 12:49 | 43.44800 | 39.94647 | 72 ft | 11 kts | 65° |
| 2026-05-04 12:49 | 43.44805 | 39.94661 | 75 ft | 2 kts | 65° |
| 2026-05-04 12:49 | 43.44835 | 39.94774 | 75 ft | 20 kts | 73° |
| 2026-05-04 12:50 | 43.44878 | 39.94941 | 78 ft | 17 kts | 66° |
| 2026-05-04 12:50 | 43.44934 | 39.95104 | 84 ft | 19 kts | 64° |
| 2026-05-04 12:50 | 43.44987 | 39.95250 | 88 ft | 11 kts | 64° |
| 2026-05-04 12:50 | 43.44998 | 39.95284 | 87 ft | 1 kts | 64° |
| 2026-05-04 12:51 | 43.44999 | 39.95286 | 88 ft | 0 kts | 64° |
| 2026-05-04 12:53 | 43.45027 | 39.95369 | 91 ft | 18 kts | 65° |
| 2026-05-04 12:53 | 43.45100 | 39.95520 | 94 ft | 18 kts | 34° |
| 2026-05-04 12:53 | 43.45180 | 39.95567 | 92 ft | 4 kts | 344° |
| 2026-05-04 12:53 | 43.45176 | 39.95524 | 93 ft | 11 kts | 225° |
| 2026-05-04 12:54 | 43.45096 | 39.95376 | 92 ft | 23 kts | 244° |
| 2026-05-04 12:54 | 43.45031 | 39.95171 | 87 ft | 24 kts | 244° |
| 2026-05-04 12:54 | 43.44935 | 39.94984 | 83 ft | 24 kts | 243° |
| 2026-05-04 12:54 | 43.44863 | 39.94767 | 66 ft | 25 kts | 249° |
| 2026-05-04 12:55 | 43.44795 | 39.94547 | 73 ft | 25 kts | 246° |
| 2026-05-04 12:55 | 43.44756 | 39.94435 | 73 ft | 2 kts | 244° |
| 2026-05-04 12:55 | 43.44753 | 39.94427 | 75 ft | 0 kts | 244° |
| 2026-05-04 12:58 | 43.44736 | 39.94380 | 75 ft | 19 kts | 244° |
| 2026-05-04 12:58 | 43.44630 | 39.94064 | 70 ft | 29 kts | 245° |
| 2026-05-04 12:58 | 43.44509 | 39.93846 | 64 ft | 30 kts | 231° |
| 2026-05-04 12:59 | 43.44410 | 39.93574 | 56 ft | 33 kts | 245° |
| 2026-05-04 12:59 | 43.44311 | 39.93283 | 49 ft | 34 kts | 245° |
| 2026-05-04 12:59 | 43.44213 | 39.92991 | 54 ft | 33 kts | 245° |
| 2026-05-04 12:59 | 43.44142 | 39.92790 | 51 ft | 8 kts | 245° |
| 2026-05-04 13:00 | 43.44138 | 39.92780 | 49 ft | 1 kts | 245° |
| 2026-05-04 13:00 | 43.44136 | 39.92772 | 50 ft | 2 kts | 245° |
| 2026-05-04 13:00 | 43.44126 | 39.92742 | 49 ft | 3 kts | 245° |
| 2026-05-04 13:00 | 43.44115 | 39.92712 | 49 ft | 4 kts | 245° |
| 2026-05-04 13:01 | 43.44105 | 39.92683 | 48 ft | 3 kts | 245° |
| 2026-05-04 13:01 | 43.44096 | 39.92656 | 48 ft | 3 kts | 245° |
| 2026-05-04 13:01 | 43.44091 | 39.92640 | 48 ft | 3 kts | 245° |
| 2026-05-04 13:01 | 43.44083 | 39.92617 | 47 ft | 0 kts | 245° |
| 2026-05-04 13:06 | 43.44061 | 39.92565 | 46 ft | 13 kts | 228° |
| 2026-05-04 13:06 | 43.44030 | 39.92554 | 44 ft | 2 kts | 133° |
| 2026-05-04 13:07 | 43.44058 | 39.92592 | 47 ft | 12 kts | 40° |
| 2026-05-04 13:07 | 43.44138 | 39.92776 | 48 ft | 27 kts | 68° |
| 2026-05-04 13:07 | 43.44216 | 39.93002 | 54 ft | 26 kts | 65° |
| 2026-05-04 13:07 | 43.44294 | 39.93231 | 54 ft | 26 kts | 65° |
| 2026-05-04 13:08 | 43.44373 | 39.93462 | 56 ft | 26 kts | 64° |
| 2026-05-04 13:08 | 43.44447 | 39.93674 | 61 ft | 24 kts | 65° |
| 2026-05-04 13:08 | 43.44511 | 39.93865 | 69 ft | 19 kts | 65° |
| 2026-05-04 13:08 | 43.44561 | 39.94009 | 74 ft | 15 kts | 65° |
| 2026-05-04 13:09 | 43.44605 | 39.94089 | 75 ft | 5 kts | 15° |
| 2026-05-04 13:09 | 43.44626 | 39.94064 | 75 ft | 9 kts | 298° |
| 2026-05-04 13:09 | 43.44625 | 39.93970 | 73 ft | 6 kts | 244° |
| 2026-05-04 13:09 | 43.44613 | 39.93954 | 75 ft | 1 kts | 219° |
| 2026-05-04 13:10 | 43.44611 | 39.93952 | 75 ft | 0 kts | 219° |
| 2026-05-04 13:11 | 43.44549 | 39.93926 | 71 ft | 18 kts | 195° |
| 2026-05-04 13:11 | 43.44490 | 39.93816 | 57 ft | 16 kts | 247° |
| 2026-05-04 13:11 | 43.44441 | 39.93669 | 57 ft | 18 kts | 244° |
| 2026-05-04 13:12 | 43.44388 | 39.93513 | 57 ft | 19 kts | 245° |
| 2026-05-04 13:12 | 43.44333 | 39.93350 | 53 ft | 19 kts | 245° |
| 2026-05-04 13:12 | 43.44278 | 39.93185 | 53 ft | 18 kts | 245° |
| 2026-05-04 13:12 | 43.44225 | 39.93033 | 53 ft | 17 kts | 243° |
| 2026-05-04 13:13 | 43.44177 | 39.92900 | 54 ft | 15 kts | 244° |
| 2026-05-04 13:13 | 43.44123 | 39.92741 | 47 ft | 25 kts | 245° |
| 2026-05-04 13:13 | 43.44098 | 39.92563 | 46 ft | 8 kts | 259° |
| 2026-05-04 13:13 | 43.44072 | 39.92554 | 43 ft | 5 kts | 135° |
| 2026-05-04 13:14 | 43.44084 | 39.92613 | 47 ft | 9 kts | 68° |
| 2026-05-04 13:14 | 43.44133 | 39.92763 | 50 ft | 20 kts | 65° |
| 2026-05-04 13:14 | 43.44183 | 39.92914 | 52 ft | 16 kts | 65° |
| 2026-05-04 13:14 | 43.44217 | 39.93038 | 51 ft | 8 kts | 93° |
| 2026-05-04 13:15 | 43.44183 | 39.93078 | 54 ft | 10 kts | 155° |
| 2026-05-04 13:15 | 43.44115 | 39.93114 | 55 ft | 10 kts | 163° |
| 2026-05-04 13:15 | 43.44017 | 39.93158 | 50 ft | 17 kts | 155° |
| 2026-05-04 13:15 | 43.43994 | 39.93262 | 48 ft | 6 kts | 62° |
| 2026-05-04 13:16 | 43.43996 | 39.93266 | 48 ft | 0 kts | 53° |
| 2026-05-04 13:16 | 43.43999 | 39.93272 | 48 ft | 5 kts | 57° |
| 2026-05-04 13:16 | 43.44040 | 39.93382 | 52 ft | 15 kts | 64° |
| 2026-05-04 13:17 | 43.44077 | 39.93493 | 52 ft | 10 kts | 66° |
| 2026-05-04 13:17 | 43.44105 | 39.93575 | 56 ft | 11 kts | 64° |
| 2026-05-04 13:17 | 43.44139 | 39.93672 | 50 ft | 11 kts | 64° |
| 2026-05-04 13:17 | 43.44176 | 39.93781 | 52 ft | 18 kts | 64° |
| 2026-05-04 13:18 | 43.44245 | 39.93983 | 63 ft | 25 kts | 65° |
| 2026-05-04 13:18 | 43.44315 | 39.94190 | 65 ft | 24 kts | 65° |
| 2026-05-04 13:18 | 43.44389 | 39.94411 | 62 ft | 31 kts | 65° |
| 2026-05-04 13:18 | 43.44481 | 39.94678 | 69 ft | 30 kts | 65° |
| 2026-05-04 13:19 | 43.44566 | 39.94927 | 74 ft | 28 kts | 65° |
| 2026-05-04 13:19 | 43.44601 | 39.95057 | 75 ft | 5 kts | 100° |
| 2026-05-04 13:19 | 43.44595 | 39.95065 | 75 ft | 2 kts | 147° |
| 2026-05-04 13:19 | 43.44531 | 39.95052 | 70 ft | 18 kts | 204° |
| 2026-05-04 13:20 | 43.44459 | 39.94895 | 71 ft | 21 kts | 252° |
| 2026-05-04 13:20 | 43.44410 | 39.94699 | 66 ft | 21 kts | 250° |
| 2026-05-04 13:20 | 43.44351 | 39.94539 | 69 ft | 18 kts | 249° |
| 2026-05-04 13:20 | 43.44289 | 39.94354 | 60 ft | 27 kts | 245° |
| 2026-05-04 13:21 | 43.44210 | 39.94120 | 65 ft | 24 kts | 245° |
| 2026-05-04 13:21 | 43.44180 | 39.94031 | 58 ft | 1 kts | 244° |
| 2026-05-04 13:21 | 43.44174 | 39.94014 | 61 ft | 6 kts | 244° |
| 2026-05-04 13:21 | 43.44124 | 39.93870 | 53 ft | 23 kts | 245° |
| 2026-05-04 13:22 | 43.44058 | 39.93671 | 50 ft | 23 kts | 245° |
| 2026-05-04 13:22 | 43.43996 | 39.93479 | 48 ft | 14 kts | 259° |
| 2026-05-04 13:22 | 43.44034 | 39.93428 | 52 ft | 5 kts | 356° |
| 2026-05-04 13:22 | 43.44046 | 39.93427 | 53 ft | 0 kts | 358° |
| 2026-05-04 13:23 | 43.44054 | 39.93431 | 51 ft | 3 kts | 24° |
| 2026-05-04 13:23 | 43.44066 | 39.93456 | 53 ft | 6 kts | 70° |
| 2026-05-04 13:23 | 43.44070 | 39.93471 | 54 ft | 0 kts | 66° |
| 2026-05-04 13:54 | 43.44073 | 39.93479 | 49 ft | 7 kts | 66° |
| 2026-05-04 13:55 | 43.44132 | 39.93655 | 54 ft | 26 kts | 64° |
| 2026-05-04 13:55 | 43.44274 | 39.94069 | 57 ft | 19 kts | 65° |
| 2026-05-04 13:55 | 43.44291 | 39.94120 | 66 ft | 2 kts | 65° |
| 2026-05-04 13:56 | 43.44297 | 39.94137 | 67 ft | 1 kts | 65° |
| 2026-05-04 13:56 | 43.44297 | 39.94138 | 63 ft | 0 kts | 65° |
| 2026-05-04 13:57 | 43.44320 | 39.94204 | 60 ft | 16 kts | 65° |
| 2026-05-04 13:57 | 43.44369 | 39.94350 | 69 ft | 17 kts | 65° |
| 2026-05-04 13:58 | 43.44542 | 39.94861 | 69 ft | 21 kts | 64° |
| 2026-05-04 13:58 | 43.44595 | 39.95012 | 66 ft | 3 kts | 64° |
| 2026-05-04 13:58 | 43.44599 | 39.95056 | 71 ft | 7 kts | 113° |
| 2026-05-04 13:59 | 43.44576 | 39.95058 | 75 ft | 4 kts | 192° |
| 2026-05-04 13:59 | 43.44547 | 39.95050 | 75 ft | 5 kts | 192° |
| 2026-05-04 13:59 | 43.44493 | 39.94963 | 66 ft | 9 kts | 241° |
| 2026-05-04 14:00 | 43.44458 | 39.94866 | 62 ft | 13 kts | 245° |
| 2026-05-04 14:00 | 43.44371 | 39.94600 | 64 ft | 17 kts | 246° |
| 2026-05-04 14:00 | 43.44326 | 39.94462 | 68 ft | 11 kts | 246° |
| 2026-05-04 14:01 | 43.44321 | 39.94447 | 69 ft | 1 kts | 246° |
| 2026-05-04 14:01 | 43.44320 | 39.94442 | 65 ft | 1 kts | 246° |
| 2026-05-04 14:01 | 43.44307 | 39.94402 | 63 ft | 3 kts | 246° |
| 2026-05-04 14:02 | 43.44297 | 39.94371 | 66 ft | 4 kts | 246° |
| 2026-05-04 14:02 | 43.44284 | 39.94334 | 62 ft | 5 kts | 246° |
| 2026-05-04 14:02 | 43.44265 | 39.94274 | 62 ft | 9 kts | 246° |
| 2026-05-04 14:02 | 43.44230 | 39.94179 | 60 ft | 12 kts | 243° |
| 2026-05-04 14:03 | 43.44188 | 39.94067 | 57 ft | 15 kts | 243° |
| 2026-05-04 14:03 | 43.44148 | 39.93951 | 58 ft | 14 kts | 245° |
| 2026-05-04 14:03 | 43.44106 | 39.93823 | 57 ft | 15 kts | 246° |
| 2026-05-04 14:03 | 43.44057 | 39.93673 | 50 ft | 19 kts | 246° |
| 2026-05-04 14:04 | 43.43993 | 39.93447 | 47 ft | 1 kts | 321° |
| 2026-05-04 14:21 | 43.43997 | 39.93443 | 50 ft | 5 kts | 326° |
| 2026-05-04 14:22 | 43.44057 | 39.93451 | 54 ft | 10 kts | 52° |
| 2026-05-04 14:22 | 43.44089 | 39.93529 | 50 ft | 9 kts | 65° |
| 2026-05-04 14:22 | 43.44126 | 39.93639 | 48 ft | 20 kts | 64° |
| 2026-05-04 14:22 | 43.44204 | 39.93853 | 55 ft | 24 kts | 67° |
| 2026-05-04 14:23 | 43.44210 | 39.93873 | 60 ft | 0 kts | 68° |
| 2026-05-04 14:31 | 43.44279 | 39.94092 | 59 ft | 16 kts | 65° |
| 2026-05-04 14:32 | 43.44351 | 39.94337 | 69 ft | 10 kts | 97° |
| 2026-05-04 14:32 | 43.44299 | 39.94351 | 69 ft | 9 kts | 210° |
| 2026-05-04 14:32 | 43.44284 | 39.94327 | 69 ft | 0 kts | 235° |
| 2026-05-04 14:33 | 43.44277 | 39.94313 | 67 ft | 7 kts | 235° |
| 2026-05-04 14:33 | 43.44219 | 39.94195 | 62 ft | 23 kts | 236° |
| 2026-05-04 14:33 | 43.44198 | 39.94153 | 65 ft | 0 kts | 236° |
| 2026-05-04 14:34 | 43.44195 | 39.94146 | 65 ft | 1 kts | 236° |
| 2026-05-04 14:34 | 43.44188 | 39.94132 | 58 ft | 2 kts | 236° |
| 2026-05-04 14:34 | 43.44174 | 39.94105 | 62 ft | 5 kts | 236° |
| 2026-05-04 14:34 | 43.44142 | 39.94040 | 55 ft | 10 kts | 236° |
| 2026-05-04 14:35 | 43.44109 | 39.93941 | 59 ft | 11 kts | 269° |
| 2026-05-04 14:35 | 43.44109 | 39.93838 | 53 ft | 10 kts | 250° |
| 2026-05-04 14:35 | 43.44080 | 39.93732 | 50 ft | 14 kts | 248° |
| 2026-05-04 14:35 | 43.44043 | 39.93601 | 49 ft | 15 kts | 248° |
| 2026-05-04 14:36 | 43.44031 | 39.93563 | 54 ft | 3 kts | 248° |
| 2026-05-04 14:36 | 43.44024 | 39.93540 | 53 ft | 4 kts | 247° |
| 2026-05-04 14:36 | 43.44009 | 39.93490 | 51 ft | 8 kts | 247° |
| 2026-05-04 14:36 | 43.44008 | 39.93486 | 51 ft | 0 kts | 247° |
| 2026-05-04 14:51 | 43.44008 | 39.93485 | 51 ft | 1 kts | 247° |
| 2026-05-04 14:51 | 43.43987 | 39.93419 | 49 ft | 0 kts | 246° |